Time;durP1;ratioP1;P1;durP2;ratioP2;P2;SDS_P1;SDS_P2;PMS_P1;PMS_P2;Temp;Humidity;BMP_temperature;BMP_pressure;BME280_temperature;BME280_humidity;BME280_pressure;Samples;Min_cycle;Max_cycle;Signal;HPM_P1;HPM_P2
2022/07/24 00:00:38;;;;;;;15.52;6.22;;;17.80;99.90;;;;;;4953164;28;20185;-60
2022/07/24 00:03:04;;;;;;;13.20;5.93;;;17.70;99.90;;;;;;4952878;28;20683;-60
2022/07/24 00:05:31;;;;;;;12.57;6.30;;;17.60;99.90;;;;;;4953086;28;20188;-60
2022/07/24 00:07:57;;;;;;;15.32;6.47;;;17.50;99.90;;;;;;4953252;28;20192;-60
2022/07/24 00:10:23;;;;;;;20.80;7.60;;;17.50;99.90;;;;;;4952733;28;20180;-61
2022/07/24 00:12:48;;;;;;;14.75;6.50;;;17.50;99.90;;;;;;4952258;28;20212;-61
2022/07/24 00:15:14;;;;;;;21.63;6.75;;;17.50;99.90;;;;;;4951315;28;20235;-60
2022/07/24 00:17:40;;;;;;;14.52;6.70;;;17.50;99.90;;;;;;4952882;28;20191;-59
2022/07/24 00:20:07;;;;;;;13.27;5.97;;;17.50;99.90;;;;;;4952576;29;20176;-59
2022/07/24 00:22:33;;;;;;;19.35;6.95;;;17.50;99.90;;;;;;4952544;29;20239;-59
2022/07/24 00:24:59;;;;;;;19.05;6.78;;;17.60;99.90;;;;;;4952817;29;20545;-59
2022/07/24 00:27:25;;;;;;;15.63;6.47;;;17.50;99.90;;;;;;4952247;28;20184;-60
2022/07/24 00:29:51;;;;;;;12.73;6.07;;;17.50;99.90;;;;;;4952975;28;20179;-60
2022/07/24 00:32:17;;;;;;;23.73;7.07;;;17.50;99.90;;;;;;4952331;28;20212;-60
2022/07/24 00:34:43;;;;;;;15.32;6.40;;;17.60;99.90;;;;;;4952784;29;20663;-59
2022/07/24 00:37:09;;;;;;;24.60;6.97;;;17.60;99.90;;;;;;4952855;28;20172;-60
2022/07/24 00:39:34;;;;;;;16.55;6.75;;;17.50;99.90;;;;;;4952819;29;20175;-60
2022/07/24 00:42:00;;;;;;;17.15;6.28;;;17.60;99.90;;;;;;4953862;28;20173;-61
2022/07/24 00:44:26;;;;;;;17.58;6.43;;;17.60;99.90;;;;;;4952757;29;20169;-59
2022/07/24 00:46:52;;;;;;;14.68;6.43;;;17.60;99.90;;;;;;4937739;29;20704;-60
2022/07/24 00:49:20;;;;;;;18.83;6.95;;;17.60;99.90;;;;;;4939272;29;20649;-60
2022/07/24 00:51:48;;;;;;;21.27;5.82;;;17.70;99.90;;;;;;4956472;28;20576;-58
2022/07/24 00:54:16;;;;;;;14.85;6.63;;;17.70;99.90;;;;;;4956399;28;20539;-59
2022/07/24 00:56:44;;;;;;;16.73;6.43;;;17.70;99.90;;;;;;4956390;28;20279;-59
2022/07/24 00:59:10;;;;;;;18.33;6.80;;;17.70;99.90;;;;;;4953236;28;20183;-59
2022/07/24 01:01:36;;;;;;;18.42;5.95;;;17.70;99.90;;;;;;4944605;29;20180;-59
2022/07/24 01:04:02;;;;;;;20.13;5.88;;;17.70;99.90;;;;;;4956075;29;20235;-60
2022/07/24 01:06:28;;;;;;;19.20;6.30;;;17.70;99.90;;;;;;4950386;28;20180;-59
2022/07/24 01:08:54;;;;;;;20.27;7.07;;;17.70;99.90;;;;;;4956090;28;20177;-60
2022/07/24 01:11:21;;;;;;;16.92;6.20;;;17.60;99.90;;;;;;4955525;28;20212;-60
2022/07/24 01:13:48;;;;;;;19.05;5.47;;;17.60;99.90;;;;;;4955717;28;20184;-60
2022/07/24 01:16:15;;;;;;;16.40;6.78;;;17.70;99.90;;;;;;4955958;28;20185;-60
2022/07/24 01:18:41;;;;;;;11.05;5.53;;;17.60;99.90;;;;;;4955655;28;20259;-61
2022/07/24 01:21:07;;;;;;;16.92;6.15;;;17.60;99.90;;;;;;4953685;29;20356;-58
2022/07/24 01:23:33;;;;;;;14.73;5.60;;;17.70;99.90;;;;;;4955541;28;20177;-59
2022/07/24 01:25:59;;;;;;;10.55;4.43;;;17.70;99.90;;;;;;4954467;29;20640;-59
2022/07/24 01:28:25;;;;;;;8.80;4.38;;;17.70;99.90;;;;;;4955941;28;20175;-60
2022/07/24 01:30:52;;;;;;;14.60;5.47;;;17.70;99.90;;;;;;4955695;28;20184;-59
2022/07/24 01:33:18;;;;;;;23.00;5.57;;;17.70;99.90;;;;;;4955969;28;20177;-60
2022/07/24 01:35:44;;;;;;;17.70;6.15;;;17.80;99.90;;;;;;4955595;28;20176;-59
2022/07/24 01:38:12;;;;;;;14.48;5.20;;;17.80;99.90;;;;;;4955787;28;20180;-59
2022/07/24 01:40:39;;;;;;;17.40;6.22;;;17.80;99.90;;;;;;4955822;28;20165;-60
2022/07/24 01:43:06;;;;;;;14.57;5.53;;;17.70;99.90;;;;;;4955284;28;20176;-59
2022/07/24 01:45:31;;;;;;;18.60;5.90;;;17.80;99.90;;;;;;4953796;28;20212;-59
2022/07/24 01:47:57;;;;;;;14.25;5.28;;;17.80;99.90;;;;;;4955228;28;20187;-60
2022/07/24 01:50:23;;;;;;;16.25;5.63;;;17.80;99.90;;;;;;4955509;28;20206;-59
2022/07/24 01:52:49;;;;;;;12.60;4.75;;;17.80;99.90;;;;;;4955241;28;20623;-60
2022/07/24 01:55:15;;;;;;;16.70;5.45;;;17.90;99.90;;;;;;4955386;28;20644;-59
2022/07/24 01:57:41;;;;;;;17.02;5.72;;;17.80;99.90;;;;;;4955496;29;20196;-60
2022/07/24 02:00:12;;;;;;;18.85;5.95;;;17.90;99.90;;;;;;4955199;29;20173;-60
2022/07/24 02:02:39;;;;;;;15.88;4.80;;;17.90;99.90;;;;;;4954545;28;20276;-59
2022/07/24 02:05:05;;;;;;;12.43;4.65;;;17.90;99.90;;;;;;4955320;28;20241;-59
2022/07/24 02:07:31;;;;;;;14.18;4.72;;;17.90;99.90;;;;;;4955069;28;20610;-59
2022/07/24 02:09:57;;;;;;;15.07;4.85;;;18.00;99.90;;;;;;4954978;28;20255;-59
2022/07/24 02:12:22;;;;;;;17.38;5.25;;;18.00;99.90;;;;;;4954734;29;20238;-59
2022/07/24 02:14:48;;;;;;;14.05;5.13;;;18.00;99.90;;;;;;4955158;28;20647;-60
2022/07/24 02:17:14;;;;;;;11.20;4.40;;;18.00;99.90;;;;;;4954675;28;20220;-59
2022/07/24 02:19:40;;;;;;;11.85;4.85;;;18.00;99.90;;;;;;4954570;28;20648;-59
2022/07/24 02:22:06;;;;;;;10.82;4.60;;;18.00;99.90;;;;;;4954661;28;20224;-60
2022/07/24 02:24:32;;;;;;;18.52;5.32;;;18.00;99.90;;;;;;4954926;28;20255;-59
2022/07/24 02:26:57;;;;;;;17.42;5.70;;;18.00;99.90;;;;;;4954510;28;20339;-59
2022/07/24 02:29:23;;;;;;;12.10;5.15;;;18.00;99.90;;;;;;4954854;29;20181;-59
2022/07/24 02:31:49;;;;;;;14.30;5.82;;;18.00;99.90;;;;;;4954556;28;20208;-60
2022/07/24 02:34:15;;;;;;;15.15;5.65;;;18.00;99.90;;;;;;4954600;28;20173;-60
2022/07/24 02:36:41;;;;;;;15.43;5.97;;;18.00;99.90;;;;;;4954752;28;20223;-60
2022/07/24 02:39:07;;;;;;;22.80;6.35;;;17.90;99.90;;;;;;4954547;28;20181;-60
2022/07/24 02:41:33;;;;;;;16.15;5.47;;;17.90;99.90;;;;;;4954700;28;20169;-59
2022/07/24 02:43:59;;;;;;;15.60;6.28;;;17.90;99.90;;;;;;4954402;28;20177;-59
2022/07/24 02:46:24;;;;;;;15.00;5.97;;;17.90;99.90;;;;;;4954575;29;20189;-59
2022/07/24 02:48:50;;;;;;;17.38;5.88;;;17.90;99.90;;;;;;4954170;28;20652;-59
2022/07/24 02:51:16;;;;;;;19.05;6.50;;;18.00;99.90;;;;;;4954161;28;20686;-59
2022/07/24 02:53:42;;;;;;;19.40;6.10;;;18.00;99.90;;;;;;4954248;29;20183;-59
2022/07/24 02:56:08;;;;;;;17.02;5.45;;;18.00;99.90;;;;;;4954268;28;20247;-59
2022/07/24 02:58:35;;;;;;;16.48;5.93;;;18.00;99.90;;;;;;4953943;28;20198;-59
2022/07/24 03:01:00;;;;;;;23.08;5.78;;;18.00;99.90;;;;;;4954226;28;20235;-59
2022/07/24 03:03:27;;;;;;;16.92;5.78;;;18.00;99.90;;;;;;4953803;28;20181;-59
2022/07/24 03:05:52;;;;;;;14.65;5.82;;;18.00;99.90;;;;;;4953134;28;20219;-59
2022/07/24 03:08:18;;;;;;;18.20;6.22;;;18.00;99.90;;;;;;4941115;28;20213;-60
2022/07/24 03:10:44;;;;;;;15.13;5.38;;;18.00;99.90;;;;;;4953822;28;20606;-60
2022/07/24 03:13:10;;;;;;;11.43;5.53;;;18.00;99.90;;;;;;4947101;28;20727;-59
2022/07/24 03:15:36;;;;;;;12.70;4.78;;;18.00;99.90;;;;;;4934802;29;20257;-59
2022/07/24 03:18:02;;;;;;;11.55;5.22;;;17.90;99.90;;;;;;4937846;29;20208;-60
2022/07/24 03:20:28;;;;;;;14.73;5.50;;;17.90;99.90;;;;;;4953656;29;20267;-59
2022/07/24 03:22:55;;;;;;;23.52;5.18;;;17.80;99.90;;;;;;4953733;28;20252;-59
2022/07/24 03:25:21;;;;;;;13.68;5.38;;;17.80;99.90;;;;;;4953620;28;20636;-59
2022/07/24 03:27:47;;;;;;;15.73;6.15;;;17.80;99.90;;;;;;4953742;28;20181;-59
2022/07/24 03:30:14;;;;;;;14.70;5.88;;;17.80;99.90;;;;;;4953741;28;20175;-60
2022/07/24 03:32:40;;;;;;;17.38;5.85;;;17.80;99.90;;;;;;4953060;29;20607;-71
2022/07/24 03:35:07;;;;;;;16.90;6.15;;;17.80;99.90;;;;;;4953422;28;20179;-59
2022/07/24 03:37:33;;;;;;;15.93;5.82;;;17.80;99.90;;;;;;4953910;28;20204;-60
2022/07/24 03:39:59;;;;;;;15.82;6.10;;;17.80;99.90;;;;;;4953562;28;20519;-59
2022/07/24 03:42:24;;;;;;;12.52;5.82;;;17.90;99.90;;;;;;4953402;28;20582;-59
2022/07/24 03:44:50;;;;;;;15.38;5.82;;;17.90;99.90;;;;;;4953471;29;20659;-59
2022/07/24 03:47:16;;;;;;;17.48;6.35;;;17.90;99.90;;;;;;4953306;28;20578;-60
2022/07/24 03:49:42;;;;;;;15.52;5.50;;;17.90;99.90;;;;;;4953145;28;20224;-59
2022/07/24 03:52:08;;;;;;;15.93;5.90;;;17.80;99.90;;;;;;4952845;28;20216;-60
2022/07/24 03:54:34;;;;;;;15.60;6.32;;;17.90;99.90;;;;;;4953317;28;20179;-58
2022/07/24 03:57:00;;;;;;;12.57;5.75;;;17.90;99.90;;;;;;4953391;29;20243;-59
2022/07/24 03:59:25;;;;;;;17.50;6.00;;;17.90;99.90;;;;;;4953335;28;20693;-59
2022/07/24 04:01:51;;;;;;;17.40;5.38;;;17.90;99.90;;;;;;4952566;29;20710;-59
2022/07/24 04:04:17;;;;;;;19.08;6.47;;;17.80;99.90;;;;;;4953244;28;20231;-59
2022/07/24 04:06:43;;;;;;;13.60;5.88;;;17.80;99.90;;;;;;4953047;28;20643;-59
2022/07/24 04:09:09;;;;;;;17.02;5.97;;;17.90;99.90;;;;;;4953202;28;20295;-60
2022/07/24 04:11:35;;;;;;;16.20;5.72;;;17.80;99.90;;;;;;4953025;29;20683;-60
2022/07/24 04:14:01;;;;;;;20.52;6.55;;;17.80;99.90;;;;;;4952876;28;20195;-59
2022/07/24 04:16:27;;;;;;;17.17;6.25;;;17.80;99.90;;;;;;4952970;28;20176;-60
2022/07/24 04:18:53;;;;;;;17.48;6.10;;;17.80;99.90;;;;;;4952674;29;20169;-59
2022/07/24 04:21:19;;;;;;;23.45;6.57;;;17.80;99.90;;;;;;4952865;29;20220;-59
2022/07/24 04:23:45;;;;;;;19.67;6.63;;;17.80;99.90;;;;;;4952936;28;20220;-59
2022/07/24 04:26:10;;;;;;;16.13;5.82;;;17.80;99.90;;;;;;4952669;28;20204;-60
2022/07/24 04:28:36;;;;;;;22.65;7.47;;;17.80;99.90;;;;;;4952980;28;20620;-59
2022/07/24 04:31:02;;;;;;;18.70;6.55;;;17.70;99.90;;;;;;4952789;28;20165;-60
2022/07/24 04:33:28;;;;;;;23.27;6.63;;;17.70;99.90;;;;;;4953065;28;20259;-59
2022/07/24 04:35:54;;;;;;;16.98;6.28;;;17.70;99.90;;;;;;4952820;28;20639;-60
2022/07/24 04:38:20;;;;;;;18.80;7.07;;;17.90;99.90;;;;;;4952602;28;20231;-59
2022/07/24 04:40:46;;;;;;;21.13;6.25;;;17.80;99.90;;;;;;4952612;28;20176;-59
2022/07/24 04:43:11;;;;;;;16.20;6.40;;;17.80;99.90;;;;;;4951942;28;20849;-58
2022/07/24 04:45:38;;;;;;;14.80;6.10;;;17.80;99.90;;;;;;4952856;28;20183;-59
2022/07/24 04:48:04;;;;;;;14.82;6.20;;;17.80;99.90;;;;;;4952954;28;20238;-58
2022/07/24 04:50:30;;;;;;;17.77;6.70;;;17.80;99.90;;;;;;4953013;28;20201;-58
2022/07/24 04:52:55;;;;;;;19.00;6.50;;;17.80;99.90;;;;;;4952487;28;20319;-58
2022/07/24 04:55:22;;;;;;;16.40;6.03;;;17.80;99.90;;;;;;4952683;28;20704;-58
2022/07/24 04:57:47;;;;;;;16.10;6.00;;;17.80;99.90;;;;;;4951954;28;20644;-58
2022/07/24 05:00:15;;;;;;;13.82;6.50;;;17.80;99.90;;;;;;4952220;28;20169;-57
2022/07/24 05:02:41;;;;;;;18.23;6.72;;;17.80;99.90;;;;;;4939437;28;20177;-58
2022/07/24 05:05:07;;;;;;;18.20;6.50;;;17.80;99.90;;;;;;4933585;29;20660;-58
2022/07/24 05:07:33;;;;;;;21.65;6.72;;;17.80;99.90;;;;;;4945915;28;20200;-58
2022/07/24 05:10:00;;;;;;;21.65;7.22;;;17.80;99.90;;;;;;4952652;28;20582;-58
2022/07/24 05:12:26;;;;;;;24.17;6.63;;;17.80;99.90;;;;;;4952200;28;20200;-58
2022/07/24 05:14:52;;;;;;;17.60;7.00;;;17.80;99.90;;;;;;4952725;28;20196;-58
2022/07/24 05:17:18;;;;;;;16.90;6.35;;;17.80;99.90;;;;;;4952508;28;20208;-58
2022/07/24 05:19:44;;;;;;;20.13;6.63;;;17.90;99.90;;;;;;4947850;28;20239;-58
2022/07/24 05:22:10;;;;;;;23.67;6.60;;;17.90;99.90;;;;;;4931166;29;20217;-59
2022/07/24 05:24:36;;;;;;;18.45;6.35;;;17.90;99.90;;;;;;4933335;29;20543;-58
2022/07/24 05:27:02;;;;;;;16.05;6.00;;;17.80;99.90;;;;;;4946392;28;20181;-58
2022/07/24 05:29:27;;;;;;;18.58;6.00;;;17.90;99.90;;;;;;4955964;29;20602;-58
2022/07/24 05:31:54;;;;;;;20.35;6.63;;;17.90;99.90;;;;;;4955875;29;20700;-58
2022/07/24 05:34:22;;;;;;;18.58;6.90;;;17.90;99.90;;;;;;4955852;28;20663;-59
2022/07/24 05:36:48;;;;;;;20.35;6.68;;;17.90;99.90;;;;;;4954410;29;20231;-58
2022/07/24 05:39:14;;;;;;;17.38;6.18;;;17.90;99.90;;;;;;4955433;28;20188;-58
2022/07/24 05:41:40;;;;;;;16.77;6.07;;;17.90;99.90;;;;;;4955480;28;20185;-58
2022/07/24 05:44:06;;;;;;;17.35;6.05;;;17.90;99.90;;;;;;4955751;28;20637;-59
2022/07/24 05:46:32;;;;;;;14.90;6.55;;;17.90;99.90;;;;;;4955799;28;20169;-59
2022/07/24 05:48:57;;;;;;;17.00;6.88;;;17.80;99.90;;;;;;4955675;29;20169;-59
2022/07/24 05:51:23;;;;;;;19.65;6.35;;;17.90;99.90;;;;;;4955796;28;20659;-61
2022/07/24 05:53:49;;;;;;;20.25;6.88;;;17.90;99.90;;;;;;4954965;28;20181;-59
2022/07/24 05:56:15;;;;;;;16.70;6.90;;;17.90;99.90;;;;;;4955271;28;20180;-59
2022/07/24 05:58:41;;;;;;;15.65;6.15;;;17.90;99.90;;;;;;4955492;28;20196;-59
2022/07/24 06:01:06;;;;;;;19.73;7.68;;;17.90;99.90;;;;;;4955308;28;20168;-59
2022/07/24 06:03:32;;;;;;;18.33;6.70;;;18.00;99.90;;;;;;4955378;28;20180;-59
2022/07/24 06:05:58;;;;;;;14.48;6.20;;;18.00;99.90;;;;;;4954805;29;20243;-59
2022/07/24 06:08:24;;;;;;;17.23;6.70;;;18.00;99.90;;;;;;4955027;28;20184;-58
2022/07/24 06:10:50;;;;;;;19.40;6.88;;;18.00;99.90;;;;;;4955177;28;20508;-59
2022/07/24 06:13:15;;;;;;;17.08;6.15;;;18.00;99.90;;;;;;4954798;28;20228;-59
2022/07/24 06:15:41;;;;;;;19.70;6.22;;;18.00;99.90;;;;;;4955188;28;20169;-59
2022/07/24 06:18:07;;;;;;;23.10;7.03;;;18.00;99.90;;;;;;4955159;28;20200;-60
2022/07/24 06:20:33;;;;;;;25.00;6.55;;;18.00;99.90;;;;;;4953411;28;20184;-61
2022/07/24 06:23:27;;;;;;;19.45;6.70;;;18.80;99.90;;;;;;4892552;23;20240;-60
2022/07/24 06:25:53;;;;;;;17.85;6.70;;;18.10;99.90;;;;;;4969447;23;20246;-62
2022/07/24 06:28:20;;;;;;;15.65;5.75;;;18.10;99.90;;;;;;4980040;28;20183;-63
2022/07/24 06:30:45;;;;;;;16.80;5.68;;;18.20;99.90;;;;;;4993658;28;20203;-63
2022/07/24 06:33:11;;;;;;;16.05;5.78;;;18.20;99.90;;;;;;4992699;28;20237;-63
2022/07/24 06:35:37;;;;;;;17.65;6.30;;;18.20;99.90;;;;;;4993460;28;20525;-61
2022/07/24 06:38:03;;;;;;;18.58;6.03;;;18.20;99.90;;;;;;4992564;28;20183;-64
2022/07/24 06:40:29;;;;;;;16.27;5.78;;;18.20;99.90;;;;;;4992371;28;20179;-66
2022/07/24 06:42:55;;;;;;;19.17;5.65;;;18.20;99.90;;;;;;4988589;28;20223;-65
2022/07/24 06:45:21;;;;;;;19.48;5.88;;;18.20;99.90;;;;;;4993280;28;20273;-66
2022/07/24 06:47:46;;;;;;;21.17;6.40;;;18.30;99.90;;;;;;5003988;28;20190;-67
2022/07/24 06:50:13;;;;;;;15.43;5.28;;;18.30;99.90;;;;;;5012790;28;20171;-69
2022/07/24 06:52:39;;;;;;;25.90;5.47;;;18.40;99.90;;;;;;5008023;28;20215;-60
2022/07/24 06:55:06;;;;;;;20.95;5.80;;;18.40;99.90;;;;;;4982254;28;20214;-61
2022/07/24 06:57:33;;;;;;;17.73;5.88;;;18.40;99.90;;;;;;4993158;28;20230;-61
2022/07/24 06:59:59;;;;;;;18.23;5.05;;;18.50;99.90;;;;;;4992875;28;20179;-62
2022/07/24 07:02:25;;;;;;;12.63;5.20;;;18.50;99.90;;;;;;4993024;28;20230;-61
2022/07/24 07:04:50;;;;;;;25.17;5.32;;;18.50;99.90;;;;;;4987990;28;20258;-61
2022/07/24 07:07:16;;;;;;;14.57;4.78;;;18.50;99.90;;;;;;4992748;28;20560;-59
2022/07/24 07:09:43;;;;;;;14.25;4.68;;;18.60;99.90;;;;;;4981074;28;20205;-61
2022/07/24 07:12:09;;;;;;;16.95;3.97;;;18.60;99.90;;;;;;4977670;28;20306;-62
2022/07/24 07:14:35;;;;;;;18.98;4.32;;;18.70;99.90;;;;;;4977808;28;20175;-68
2022/07/24 07:17:01;;;;;;;13.88;4.93;;;18.70;99.90;;;;;;4973487;28;20222;-70
2022/07/24 07:19:27;;;;;;;14.73;4.28;;;18.70;99.90;;;;;;4973405;28;20701;-73
2022/07/24 07:21:53;;;;;;;12.70;4.20;;;18.70;99.90;;;;;;4989895;28;20171;-72
2022/07/24 07:24:19;;;;;;;16.80;4.35;;;18.80;99.90;;;;;;4987605;28;20310;-72
2022/07/24 07:26:45;;;;;;;12.35;4.50;;;18.80;99.90;;;;;;4988420;28;20661;-71
2022/07/24 07:29:11;;;;;;;17.75;4.47;;;18.80;99.90;;;;;;4991506;28;20239;-72
2022/07/24 07:31:37;;;;;;;12.32;3.92;;;18.80;99.90;;;;;;4981394;28;20206;-71
2022/07/24 07:34:03;;;;;;;10.43;3.85;;;18.80;99.90;;;;;;4991997;28;20175;-70
2022/07/24 07:36:28;;;;;;;11.52;3.90;;;18.90;99.90;;;;;;4979859;28;20659;-71
2022/07/24 07:38:54;;;;;;;18.98;4.30;;;18.90;99.90;;;;;;4978386;28;20188;-72
2022/07/24 07:41:20;;;;;;;12.50;4.05;;;19.00;99.90;;;;;;4992317;28;20234;-71
2022/07/24 07:43:47;;;;;;;13.80;4.05;;;19.00;99.90;;;;;;4985111;28;20183;-71
2022/07/24 07:46:13;;;;;;;10.48;3.92;;;19.00;99.90;;;;;;4972853;28;20183;-67
2022/07/24 07:48:40;;;;;;;9.90;3.85;;;18.90;99.90;;;;;;5002486;28;20175;-67
2022/07/24 07:51:06;;;;;;;10.90;4.05;;;18.90;99.90;;;;;;5011401;28;20224;-67
2022/07/24 07:53:31;;;;;;;11.35;3.50;;;19.00;99.90;;;;;;5011891;28;20641;-68
2022/07/24 07:55:57;;;;;;;11.68;3.78;;;19.10;99.90;;;;;;5004149;28;20258;-57
2022/07/24 07:58:23;;;;;;;17.45;3.88;;;19.10;99.90;;;;;;4991777;28;20794;-61
2022/07/24 08:00:49;;;;;;;14.18;3.60;;;19.10;99.90;;;;;;4992096;28;20171;-65
2022/07/24 08:03:15;;;;;;;13.48;3.92;;;19.20;99.90;;;;;;4987389;28;20163;-67
2022/07/24 08:05:41;;;;;;;13.75;3.22;;;19.30;99.90;;;;;;4973555;28;20670;-66
2022/07/24 08:08:07;;;;;;;17.63;3.55;;;19.40;99.90;;;;;;4987903;28;20218;-67
2022/07/24 08:10:33;;;;;;;6.53;3.50;;;19.40;99.90;;;;;;4984309;28;20266;-66
2022/07/24 08:12:59;;;;;;;4.55;2.50;;;19.40;99.90;;;;;;4987925;28;20222;-67
2022/07/24 08:15:25;;;;;;;12.82;3.80;;;19.30;99.90;;;;;;4973045;28;20199;-65
2022/07/24 08:17:56;;;;;;;9.85;3.80;;;19.30;99.90;;;;;;4975382;28;20167;-66
2022/07/24 08:20:23;;;;;;;11.18;3.83;;;19.30;99.90;;;;;;4991144;28;20184;-66
2022/07/24 08:22:49;;;;;;;12.32;4.28;;;19.30;99.90;;;;;;4991847;28;20672;-66
2022/07/24 08:25:16;;;;;;;12.15;4.13;;;19.30;99.90;;;;;;5005371;28;20300;-66
2022/07/24 08:27:42;;;;;;;13.15;4.20;;;19.30;99.90;;;;;;5011227;28;20162;-66
2022/07/24 08:30:09;;;;;;;16.48;4.18;;;19.30;99.90;;;;;;5008972;28;20182;-66
2022/07/24 08:32:35;;;;;;;11.45;3.97;;;19.30;99.90;;;;;;5011136;28;20214;-67
2022/07/24 08:35:01;;;;;;;11.07;3.65;;;19.20;99.90;;;;;;5011338;28;20775;-66
2022/07/24 08:37:27;;;;;;;13.38;4.10;;;19.20;99.90;;;;;;5011456;28;20269;-66
2022/07/24 08:39:54;;;;;;;14.98;4.43;;;19.30;99.90;;;;;;5010369;28;20249;-67
2022/07/24 08:42:20;;;;;;;19.27;4.53;;;19.20;99.90;;;;;;5006244;28;20648;-65
2022/07/24 08:44:47;;;;;;;11.90;3.80;;;19.40;99.90;;;;;;5002074;28;20179;-66
2022/07/24 08:47:15;;;;;;;18.15;4.55;;;19.40;99.90;;;;;;4998659;28;20218;-66
2022/07/24 08:49:44;;;;;;;12.85;4.00;;;19.50;99.90;;;;;;4991754;28;20183;-66
2022/07/24 08:52:10;;;;;;;10.20;4.30;;;19.60;99.90;;;;;;4973912;28;20210;-67
2022/07/24 08:54:36;;;;;;;11.25;3.65;;;19.90;99.90;;;;;;4990785;28;20171;-67
2022/07/24 08:57:03;;;;;;;10.57;3.50;;;20.10;99.90;;;;;;4994953;28;20274;-68
2022/07/24 08:59:30;;;;;;;9.30;3.60;;;20.20;99.90;;;;;;5000580;28;20691;-67
2022/07/24 09:01:56;;;;;;;10.85;3.22;;;20.40;99.90;;;;;;5001648;28;20182;-67
2022/07/24 09:04:57;;;;;;;8.55;3.20;;;20.80;99.90;;;;;;5005519;28;20366;-68
2022/07/24 09:07:24;;;;;;;11.25;3.40;;;21.00;99.90;;;;;;4999662;28;20272;-67
2022/07/24 09:10:17;;;;;;;10.30;3.22;;;20.90;99.90;;;;;;5020896;28;20178;-67
2022/07/24 09:12:46;;;;;;;12.38;3.53;;;20.80;99.90;;;;;;5030635;28;20230;-67
2022/07/24 09:15:17;;;;;;;8.73;3.33;;;20.80;99.90;;;;;;5024701;28;20178;-67
2022/07/24 09:17:51;;;;;;;10.30;3.88;;;21.00;99.90;;;;;;5034330;28;20301;-67
2022/07/24 09:20:17;;;;;;;16.00;4.07;;;21.00;99.90;;;;;;5034328;28;20166;-68
2022/07/24 09:22:43;;;;;;;10.68;3.80;;;21.10;99.90;;;;;;5017232;28;20695;-68
2022/07/24 09:25:20;;;;;;;11.93;3.97;;;21.10;99.90;;;;;;5014110;28;20732;-63
2022/07/24 09:27:50;;;;;;;12.85;3.85;;;21.10;99.90;;;;;;5014218;28;20193;-62
2022/07/24 09:30:25;;;;;;;13.48;3.70;;;21.00;99.90;;;;;;5020292;28;20738;-62
2022/07/24 09:32:59;;;;;;;13.15;3.78;;;20.90;99.90;;;;;;5019314;28;20321;-62
2022/07/24 09:35:39;;;;;;;15.68;4.03;;;20.90;99.90;;;;;;5014084;28;20633;-63
2022/07/24 09:38:12;;;;;;;12.23;3.72;;;20.90;99.90;;;;;;5013951;28;20175;-62
2022/07/24 09:40:40;;;;;;;12.32;3.78;;;21.10;99.90;;;;;;5022464;28;20200;-63
2022/07/24 09:43:13;;;;;;;12.40;3.97;;;21.30;99.90;;;;;;5033655;28;20174;-61
2022/07/24 09:46:03;;;;;;;12.80;3.55;;;21.40;99.90;;;;;;5033863;28;20636;-62
2022/07/24 09:48:32;;;;;;;10.48;4.05;;;21.20;99.90;;;;;;5033717;28;20174;-62
2022/07/24 09:51:02;;;;;;;9.35;3.70;;;21.10;99.90;;;;;;5033693;28;20205;-61
2022/07/24 09:53:30;;;;;;;14.63;4.10;;;21.20;99.90;;;;;;5018271;28;20676;-62
2022/07/24 09:56:02;;;;;;;12.52;4.10;;;21.40;99.90;;;;;;5012669;28;20217;-63
2022/07/24 09:58:29;;;;;;;7.95;3.17;;;21.60;99.90;;;;;;4997897;28;20545;-63
2022/07/24 10:00:57;;;;;;;12.20;3.42;;;21.30;99.90;;;;;;5006459;28;20175;-63
2022/07/24 10:03:44;;;;;;;12.05;3.67;;;21.70;99.90;;;;;;5013701;28;20194;-63
2022/07/24 10:06:17;;;;;;;9.80;3.58;;;21.70;99.90;;;;;;5012148;28;20231;-62
2022/07/24 10:08:45;;;;;;;10.45;3.20;;;22.00;99.90;;;;;;5013624;28;20637;-63
2022/07/24 10:11:12;;;;;;;11.02;3.95;;;21.90;99.90;;;;;;5012484;28;20174;-63
2022/07/24 10:13:39;;;;;;;11.45;3.22;;;22.00;99.90;;;;;;5012932;28;20190;-63
2022/07/24 10:16:13;;;;;;;12.18;3.28;;;21.70;99.90;;;;;;5012720;28;20245;-63
2022/07/24 10:18:51;;;;;;;15.20;3.90;;;21.20;99.90;;;;;;5008452;28;20228;-62
2022/07/24 10:21:23;;;;;;;13.35;3.85;;;21.00;99.90;;;;;;4994292;28;20497;-62
2022/07/24 10:24:40;;;;;;;11.65;3.88;;;20.80;99.90;;;;;;5001311;28;20171;-62
2022/07/24 10:27:21;;;;;;;13.38;4.20;;;20.90;99.90;;;;;;4914358;29;20221;-61
2022/07/24 10:29:48;;;;;;;12.65;4.20;;;20.90;99.90;;;;;;4998920;28;20171;-62
2022/07/24 10:32:14;;;;;;;14.60;4.95;;;20.70;99.90;;;;;;5012064;28;20214;-63
2022/07/24 10:35:09;;;;;;;16.02;4.78;;;20.70;99.90;;;;;;5011755;28;20241;-63
2022/07/24 10:37:41;;;;;;;11.30;4.18;;;20.90;99.90;;;;;;5010960;28;20200;-63
2022/07/24 10:40:16;;;;;;;15.93;4.47;;;21.10;99.90;;;;;;5008513;28;20166;-62
2022/07/24 10:43:10;;;;;;;14.23;3.40;;;21.20;99.90;;;;;;5017587;28;20173;-63
2022/07/24 10:45:48;;;;;;;10.43;3.53;;;21.40;99.90;;;;;;5032729;28;20166;-62
2022/07/24 10:48:20;;;;;;;10.90;2.90;;;21.70;99.90;;;;;;5032736;28;20211;-62
2022/07/24 10:51:17;;;;;;;10.82;3.25;;;21.90;99.90;;;;;;5014762;28;20265;-63
2022/07/24 10:53:46;;;;;;;10.57;3.55;;;22.30;99.90;;;;;;5032434;28;20197;-63
2022/07/24 10:56:28;;;;;;;9.70;3.03;;;22.70;99.90;;;;;;5014537;28;20208;-63
2022/07/24 10:59:22;;;;;;;9.63;3.22;;;22.80;99.90;;;;;;5032359;28;20189;-63
2022/07/24 11:01:53;;;;;;;11.25;3.67;;;22.80;99.90;;;;;;4991435;28;20533;-62
2022/07/24 11:04:19;;;;;;;8.27;3.03;;;22.90;99.90;;;;;;4992919;28;20679;-62
2022/07/24 11:06:48;;;;;;;13.10;3.50;;;22.20;99.90;;;;;;4995201;28;20186;-61
2022/07/24 11:09:16;;;;;;;7.88;3.30;;;22.00;99.90;;;;;;5012343;28;20265;-63
2022/07/24 11:11:52;;;;;;;9.63;3.60;;;22.50;99.90;;;;;;5012380;28;20206;-63
2022/07/24 11:14:25;;;;;;;10.68;3.20;;;22.10;99.90;;;;;;5000301;28;20190;-63
2022/07/24 11:16:52;;;;;;;5.20;2.85;;;22.10;99.90;;;;;;4992530;28;20190;-61
2022/07/24 11:19:18;;;;;;;8.65;3.53;;;22.60;99.90;;;;;;4992639;28;20182;-63
2022/07/24 11:21:49;;;;;;;9.23;2.92;;;23.00;99.90;;;;;;4992538;28;20539;-62
2022/07/24 11:24:27;;;;;;;7.68;2.83;;;23.10;99.90;;;;;;4992278;28;20262;-63
2022/07/24 11:26:57;;;;;;;13.98;3.40;;;23.30;99.90;;;;;;4991731;28;20266;-64
2022/07/24 11:29:32;;;;;;;12.95;3.67;;;23.50;99.90;;;;;;4991708;28;20649;-63
2022/07/24 11:32:01;;;;;;;9.20;2.83;;;23.90;99.90;;;;;;4992028;28;20580;-63
2022/07/24 11:34:29;;;;;;;10.02;3.47;;;23.90;99.90;;;;;;4992127;28;20229;-63
2022/07/24 11:36:56;;;;;;;9.20;3.17;;;23.20;99.90;;;;;;4991823;28;20175;-63
2022/07/24 11:39:31;;;;;;;10.50;3.17;;;23.10;99.90;;;;;;4992165;28;20266;-63
2022/07/24 11:42:03;;;;;;;16.48;3.42;;;23.40;99.90;;;;;;4992015;28;20194;-63
2022/07/24 11:44:31;;;;;;;9.25;3.80;;;23.50;99.90;;;;;;4992093;28;20175;-63
2022/07/24 11:47:07;;;;;;;11.18;3.30;;;24.00;99.90;;;;;;4973955;28;20543;-63
2022/07/24 11:49:41;;;;;;;8.48;3.10;;;24.40;99.90;;;;;;4990808;28;20175;-64
2022/07/24 11:52:08;;;;;;;13.00;3.13;;;24.70;99.90;;;;;;4991261;28;20203;-63
2022/07/24 11:54:34;;;;;;;10.25;2.95;;;25.00;99.90;;;;;;4991833;28;20171;-63
2022/07/24 11:56:59;;;;;;;8.38;2.92;;;25.30;99.90;;;;;;4992144;28;20204;-63
2022/07/24 11:59:31;;;;;;;7.57;3.30;;;24.80;99.90;;;;;;4993980;28;20683;-63
2022/07/24 12:02:04;;;;;;;8.38;2.83;;;24.70;99.90;;;;;;5003601;28;20182;-63
2022/07/24 12:04:30;;;;;;;12.38;3.00;;;24.70;99.90;;;;;;4987922;28;20254;-63
2022/07/24 12:06:56;;;;;;;10.77;2.75;;;24.60;99.90;;;;;;5000677;28;20278;-62
2022/07/24 12:09:22;;;;;;;10.40;2.63;;;24.40;99.90;;;;;;4991528;28;20648;-63
2022/07/24 12:11:48;;;;;;;9.55;2.90;;;25.40;99.90;;;;;;4991229;28;20203;-62
2022/07/24 12:14:16;;;;;;;6.63;2.35;;;25.90;99.90;;;;;;4991583;28;20593;-63
2022/07/24 12:16:42;;;;;;;6.50;2.45;;;25.90;99.90;;;;;;4991814;28;20744;-62
2022/07/24 12:19:15;;;;;;;10.55;2.58;;;25.50;99.90;;;;;;4991615;28;20178;-63
2022/07/24 12:21:45;;;;;;;10.20;2.63;;;25.00;99.90;;;;;;5005673;28;20579;-63
2022/07/24 12:24:12;;;;;;;5.45;2.05;;;25.50;99.90;;;;;;5010922;28;20681;-63
2022/07/24 12:26:54;;;;;;;7.93;2.42;;;25.20;99.90;;;;;;5011275;28;20175;-63
2022/07/24 12:29:21;;;;;;;7.53;2.17;;;25.30;99.90;;;;;;5011282;28;20611;-63
2022/07/24 12:31:47;;;;;;;8.52;2.40;;;24.90;99.90;;;;;;5010986;28;20206;-64
2022/07/24 12:34:14;;;;;;;10.38;2.53;;;25.00;99.90;;;;;;4996889;28;20171;-64
2022/07/24 12:36:40;;;;;;;9.50;2.20;;;26.00;99.90;;;;;;4981299;28;20179;-64
2022/07/24 12:39:06;;;;;;;12.98;2.28;;;25.30;99.90;;;;;;4995590;28;20175;-64
2022/07/24 12:41:48;;;;;;;6.13;2.78;;;24.60;99.90;;;;;;4992426;28;20179;-64